sensor_id;sensor_type;location;lat;lon;timestamp;P1;durP1;ratioP1;P2;durP2;ratioP2
37288;SDS011;23174;49.462;11.000;2023-01-23T00:00:44;6.20;;;5.70;;
37288;SDS011;23174;49.462;11.000;2023-01-23T00:02:46;6.03;;;5.63;;
37288;SDS011;23174;49.462;11.000;2023-01-23T00:04:47;5.68;;;5.28;;
37288;SDS011;23174;49.462;11.000;2023-01-23T00:06:48;5.78;;;5.38;;
37288;SDS011;23174;49.462;11.000;2023-01-23T00:08:49;6.60;;;6.00;;
37288;SDS011;23174;49.462;11.000;2023-01-23T00:10:50;5.78;;;5.28;;
37288;SDS011;23174;49.462;11.000;2023-01-23T00:12:51;5.60;;;5.18;;
37288;SDS011;23174;49.462;11.000;2023-01-23T00:14:53;5.78;;;5.38;;
37288;SDS011;23174;49.462;11.000;2023-01-23T00:16:53;5.93;;;5.43;;
37288;SDS011;23174;49.462;11.000;2023-01-23T00:18:54;5.50;;;5.10;;
37288;SDS011;23174;49.462;11.000;2023-01-23T00:20:55;6.10;;;5.60;;
37288;SDS011;23174;49.462;11.000;2023-01-23T00:22:57;6.43;;;5.93;;
37288;SDS011;23174;49.462;11.000;2023-01-23T00:24:58;5.50;;;5.10;;
37288;SDS011;23174;49.462;11.000;2023-01-23T00:26:58;5.75;;;5.35;;
37288;SDS011;23174;49.462;11.000;2023-01-23T00:28:59;6.05;;;5.55;;
37288;SDS011;23174;49.462;11.000;2023-01-23T00:31:04;6.45;;;5.95;;
37288;SDS011;23174;49.462;11.000;2023-01-23T00:33:11;6.10;;;5.50;;
37288;SDS011;23174;49.462;11.000;2023-01-23T00:35:12;5.80;;;5.30;;
37288;SDS011;23174;49.462;11.000;2023-01-23T00:37:13;6.65;;;6.07;;
37288;SDS011;23174;49.462;11.000;2023-01-23T00:39:17;6.22;;;5.63;;
37288;SDS011;23174;49.462;11.000;2023-01-23T00:41:19;6.93;;;6.00;;
37288;SDS011;23174;49.462;11.000;2023-01-23T00:43:20;6.15;;;5.65;;
37288;SDS011;23174;49.462;11.000;2023-01-23T00:45:22;5.85;;;5.45;;
37288;SDS011;23174;49.462;11.000;2023-01-23T00:47:22;7.32;;;5.93;;
37288;SDS011;23174;49.462;11.000;2023-01-23T00:49:23;6.32;;;5.82;;
37288;SDS011;23174;49.462;11.000;2023-01-23T00:51:24;5.50;;;5.10;;
37288;SDS011;23174;49.462;11.000;2023-01-23T00:53:25;6.03;;;5.63;;
37288;SDS011;23174;49.462;11.000;2023-01-23T00:55:25;6.55;;;5.90;;
37288;SDS011;23174;49.462;11.000;2023-01-23T00:57:26;7.50;;;5.82;;
37288;SDS011;23174;49.462;11.000;2023-01-23T00:59:27;6.25;;;5.70;;
37288;SDS011;23174;49.462;11.000;2023-01-23T01:01:27;6.38;;;5.88;;
37288;SDS011;23174;49.462;11.000;2023-01-23T01:03:30;7.22;;;6.43;;
37288;SDS011;23174;49.462;11.000;2023-01-23T01:05:31;7.03;;;6.43;;
37288;SDS011;23174;49.462;11.000;2023-01-23T01:07:32;6.28;;;5.78;;
37288;SDS011;23174;49.462;11.000;2023-01-23T01:09:32;5.85;;;5.45;;
37288;SDS011;23174;49.462;11.000;2023-01-23T01:11:33;6.25;;;5.72;;
37288;SDS011;23174;49.462;11.000;2023-01-23T01:13:34;6.43;;;5.93;;
37288;SDS011;23174;49.462;11.000;2023-01-23T01:15:35;6.70;;;6.10;;
37288;SDS011;23174;49.462;11.000;2023-01-23T01:17:37;5.57;;;5.18;;
37288;SDS011;23174;49.462;11.000;2023-01-23T01:19:38;6.40;;;5.90;;
37288;SDS011;23174;49.462;11.000;2023-01-23T01:21:38;6.63;;;6.13;;
37288;SDS011;23174;49.462;11.000;2023-01-23T01:23:39;7.10;;;6.40;;
37288;SDS011;23174;49.462;11.000;2023-01-23T01:25:40;7.35;;;6.35;;
37288;SDS011;23174;49.462;11.000;2023-01-23T01:27:41;6.13;;;5.63;;
37288;SDS011;23174;49.462;11.000;2023-01-23T01:29:41;6.55;;;6.03;;
37288;SDS011;23174;49.462;11.000;2023-01-23T01:31:42;6.72;;;6.05;;
37288;SDS011;23174;49.462;11.000;2023-01-23T01:33:43;6.35;;;5.85;;
37288;SDS011;23174;49.462;11.000;2023-01-23T01:35:44;6.70;;;6.20;;
37288;SDS011;23174;49.462;11.000;2023-01-23T01:37:44;6.47;;;5.97;;
37288;SDS011;23174;49.462;11.000;2023-01-23T01:39:45;6.78;;;6.18;;
37288;SDS011;23174;49.462;11.000;2023-01-23T01:41:46;6.43;;;5.93;;
37288;SDS011;23174;49.462;11.000;2023-01-23T01:43:47;6.80;;;6.22;;
37288;SDS011;23174;49.462;11.000;2023-01-23T01:48:06;7.05;;;6.35;;
37288;SDS011;23174;49.462;11.000;2023-01-23T01:50:07;6.78;;;6.20;;
37288;SDS011;23174;49.462;11.000;2023-01-23T01:52:10;6.63;;;6.13;;
37288;SDS011;23174;49.462;11.000;2023-01-23T01:54:30;7.57;;;6.88;;
37288;SDS011;23174;49.462;11.000;2023-01-23T01:56:40;7.70;;;7.00;;
37288;SDS011;23174;49.462;11.000;2023-01-23T01:58:50;7.15;;;6.55;;
37288;SDS011;23174;49.462;11.000;2023-01-23T02:00:53;7.70;;;6.90;;
37288;SDS011;23174;49.462;11.000;2023-01-23T02:02:55;6.78;;;6.20;;
37288;SDS011;23174;49.462;11.000;2023-01-23T02:04:59;7.50;;;6.68;;
37288;SDS011;23174;49.462;11.000;2023-01-23T02:07:04;8.40;;;7.60;;
37288;SDS011;23174;49.462;11.000;2023-01-23T02:09:18;8.07;;;7.30;;
37288;SDS011;23174;49.462;11.000;2023-01-23T02:11:23;8.38;;;7.40;;
37288;SDS011;23174;49.462;11.000;2023-01-23T02:13:28;8.40;;;7.53;;
37288;SDS011;23174;49.462;11.000;2023-01-23T02:15:37;8.18;;;7.47;;
37288;SDS011;23174;49.462;11.000;2023-01-23T02:17:39;8.90;;;7.28;;
37288;SDS011;23174;49.462;11.000;2023-01-23T02:19:50;8.20;;;7.40;;
37288;SDS011;23174;49.462;11.000;2023-01-23T02:24:58;8.35;;;7.55;;
37288;SDS011;23174;49.462;11.000;2023-01-23T02:27:19;8.25;;;7.55;;
37288;SDS011;23174;49.462;11.000;2023-01-23T02:29:19;8.48;;;7.68;;
37288;SDS011;23174;49.462;11.000;2023-01-23T02:31:20;9.02;;;8.18;;
37288;SDS011;23174;49.462;11.000;2023-01-23T02:35:24;9.15;;;7.80;;
37288;SDS011;23174;49.462;11.000;2023-01-23T02:37:27;8.50;;;7.80;;
37288;SDS011;23174;49.462;11.000;2023-01-23T02:39:31;8.52;;;7.72;;
37288;SDS011;23174;49.462;11.000;2023-01-23T02:41:34;10.82;;;8.15;;
37288;SDS011;23174;49.462;11.000;2023-01-23T02:43:36;8.80;;;8.00;;
37288;SDS011;23174;49.462;11.000;2023-01-23T02:45:37;9.02;;;8.13;;
37288;SDS011;23174;49.462;11.000;2023-01-23T02:47:39;9.68;;;8.82;;
37288;SDS011;23174;49.462;11.000;2023-01-23T02:49:39;9.20;;;8.20;;
37288;SDS011;23174;49.462;11.000;2023-01-23T02:51:41;10.02;;;8.82;;
37288;SDS011;23174;49.462;11.000;2023-01-23T02:53:42;9.88;;;8.95;;
37288;SDS011;23174;49.462;11.000;2023-01-23T02:55:43;8.98;;;8.07;;
37288;SDS011;23174;49.462;11.000;2023-01-23T02:57:44;7.78;;;7.07;;
37288;SDS011;23174;49.462;11.000;2023-01-23T02:59:44;9.15;;;8.35;;
37288;SDS011;23174;49.462;11.000;2023-01-23T03:02:03;8.18;;;7.38;;
37288;SDS011;23174;49.462;11.000;2023-01-23T03:04:05;8.35;;;7.65;;
37288;SDS011;23174;49.462;11.000;2023-01-23T03:06:05;8.88;;;7.97;;
37288;SDS011;23174;49.462;11.000;2023-01-23T03:08:06;8.40;;;7.70;;
37288;SDS011;23174;49.462;11.000;2023-01-23T03:10:07;8.85;;;7.95;;
37288;SDS011;23174;49.462;11.000;2023-01-23T03:12:08;8.65;;;7.85;;
37288;SDS011;23174;49.462;11.000;2023-01-23T03:14:14;9.38;;;8.18;;
37288;SDS011;23174;49.462;11.000;2023-01-23T03:16:16;9.15;;;8.20;;
37288;SDS011;23174;49.462;11.000;2023-01-23T03:18:17;10.10;;;8.40;;
37288;SDS011;23174;49.462;11.000;2023-01-23T03:20:18;9.40;;;7.70;;
37288;SDS011;23174;49.462;11.000;2023-01-23T03:22:21;8.20;;;7.50;;
37288;SDS011;23174;49.462;11.000;2023-01-23T03:24:22;8.43;;;7.63;;
37288;SDS011;23174;49.462;11.000;2023-01-23T03:26:22;9.45;;;8.55;;
37288;SDS011;23174;49.462;11.000;2023-01-23T03:28:27;9.20;;;8.35;;
37288;SDS011;23174;49.462;11.000;2023-01-23T03:30:46;8.80;;;7.93;;
37288;SDS011;23174;49.462;11.000;2023-01-23T03:32:47;9.18;;;8.38;;
37288;SDS011;23174;49.462;11.000;2023-01-23T03:34:48;9.13;;;8.20;;
37288;SDS011;23174;49.462;11.000;2023-01-23T03:36:48;9.48;;;8.65;;
37288;SDS011;23174;49.462;11.000;2023-01-23T03:38:49;10.25;;;9.35;;
37288;SDS011;23174;49.462;11.000;2023-01-23T03:41:08;11.98;;;8.90;;
37288;SDS011;23174;49.462;11.000;2023-01-23T03:43:23;9.82;;;8.85;;
37288;SDS011;23174;49.462;11.000;2023-01-23T03:45:24;9.68;;;8.75;;
37288;SDS011;23174;49.462;11.000;2023-01-23T03:47:25;10.27;;;9.27;;
37288;SDS011;23174;49.462;11.000;2023-01-23T03:49:26;9.80;;;8.73;;
37288;SDS011;23174;49.462;11.000;2023-01-23T03:51:26;9.70;;;8.75;;
37288;SDS011;23174;49.462;11.000;2023-01-23T03:53:27;9.35;;;8.45;;
37288;SDS011;23174;49.462;11.000;2023-01-23T03:55:28;9.10;;;8.27;;
37288;SDS011;23174;49.462;11.000;2023-01-23T03:57:28;9.70;;;8.80;;
37288;SDS011;23174;49.462;11.000;2023-01-23T03:59:29;9.00;;;8.20;;
37288;SDS011;23174;49.462;11.000;2023-01-23T04:01:29;9.20;;;8.30;;
37288;SDS011;23174;49.462;11.000;2023-01-23T04:03:30;10.00;;;9.02;;
37288;SDS011;23174;49.462;11.000;2023-01-23T04:05:31;8.95;;;8.15;;
37288;SDS011;23174;49.462;11.000;2023-01-23T04:07:31;8.90;;;8.10;;
37288;SDS011;23174;49.462;11.000;2023-01-23T04:09:32;9.57;;;8.77;;
37288;SDS011;23174;49.462;11.000;2023-01-23T04:11:32;9.70;;;8.80;;
37288;SDS011;23174;49.462;11.000;2023-01-23T04:13:33;9.50;;;8.52;;
37288;SDS011;23174;49.462;11.000;2023-01-23T04:15:33;9.45;;;8.45;;
37288;SDS011;23174;49.462;11.000;2023-01-23T04:17:34;9.63;;;8.73;;
37288;SDS011;23174;49.462;11.000;2023-01-23T04:19:35;9.68;;;8.77;;
37288;SDS011;23174;49.462;11.000;2023-01-23T04:21:38;9.10;;;8.18;;
37288;SDS011;23174;49.462;11.000;2023-01-23T04:23:39;11.13;;;9.10;;
37288;SDS011;23174;49.462;11.000;2023-01-23T04:25:39;9.23;;;8.35;;
37288;SDS011;23174;49.462;11.000;2023-01-23T04:27:40;9.63;;;8.73;;
37288;SDS011;23174;49.462;11.000;2023-01-23T04:29:40;9.73;;;8.73;;
37288;SDS011;23174;49.462;11.000;2023-01-23T04:31:41;9.43;;;8.52;;
37288;SDS011;23174;49.462;11.000;2023-01-23T04:33:42;9.18;;;8.27;;
37288;SDS011;23174;49.462;11.000;2023-01-23T04:35:49;8.30;;;7.55;;
37288;SDS011;23174;49.462;11.000;2023-01-23T04:37:53;8.82;;;8.00;;
37288;SDS011;23174;49.462;11.000;2023-01-23T04:39:53;9.00;;;8.10;;
37288;SDS011;23174;49.462;11.000;2023-01-23T04:41:54;8.32;;;7.53;;
37288;SDS011;23174;49.462;11.000;2023-01-23T04:43:55;9.02;;;8.23;;
37288;SDS011;23174;49.462;11.000;2023-01-23T04:45:55;8.75;;;7.95;;
37288;SDS011;23174;49.462;11.000;2023-01-23T04:47:56;8.60;;;7.80;;
37288;SDS011;23174;49.462;11.000;2023-01-23T04:49:56;8.55;;;7.82;;
37288;SDS011;23174;49.462;11.000;2023-01-23T04:51:57;8.40;;;7.68;;
37288;SDS011;23174;49.462;11.000;2023-01-23T04:53:58;9.77;;;8.82;;
37288;SDS011;23174;49.462;11.000;2023-01-23T04:55:58;8.50;;;7.70;;
37288;SDS011;23174;49.462;11.000;2023-01-23T04:57:59;8.40;;;7.60;;
37288;SDS011;23174;49.462;11.000;2023-01-23T05:00:00;8.82;;;7.93;;
37288;SDS011;23174;49.462;11.000;2023-01-23T05:02:00;8.80;;;8.00;;
37288;SDS011;23174;49.462;11.000;2023-01-23T05:04:01;11.18;;;8.73;;
37288;SDS011;23174;49.462;11.000;2023-01-23T05:06:02;8.90;;;8.00;;
37288;SDS011;23174;49.462;11.000;2023-01-23T05:08:03;9.65;;;8.65;;
37288;SDS011;23174;49.462;11.000;2023-01-23T05:10:04;9.32;;;8.32;;
37288;SDS011;23174;49.462;11.000;2023-01-23T05:12:05;9.50;;;8.60;;
37288;SDS011;23174;49.462;11.000;2023-01-23T05:14:06;9.10;;;8.25;;
37288;SDS011;23174;49.462;11.000;2023-01-23T05:16:06;9.40;;;8.40;;
37288;SDS011;23174;49.462;11.000;2023-01-23T05:18:07;10.48;;;9.43;;
37288;SDS011;23174;49.462;11.000;2023-01-23T05:20:08;9.70;;;8.70;;
37288;SDS011;23174;49.462;11.000;2023-01-23T05:22:09;10.10;;;8.75;;
37288;SDS011;23174;49.462;11.000;2023-01-23T05:24:10;9.88;;;8.88;;
37288;SDS011;23174;49.462;11.000;2023-01-23T05:26:10;9.43;;;8.52;;
37288;SDS011;23174;49.462;11.000;2023-01-23T05:28:11;9.07;;;8.18;;
37288;SDS011;23174;49.462;11.000;2023-01-23T05:30:12;8.88;;;8.07;;
37288;SDS011;23174;49.462;11.000;2023-01-23T05:32:13;8.75;;;7.93;;
37288;SDS011;23174;49.462;11.000;2023-01-23T05:34:13;9.25;;;8.30;;
37288;SDS011;23174;49.462;11.000;2023-01-23T05:36:14;10.18;;;8.65;;
37288;SDS011;23174;49.462;11.000;2023-01-23T05:38:14;9.70;;;8.70;;
37288;SDS011;23174;49.462;11.000;2023-01-23T05:40:15;8.65;;;7.75;;
37288;SDS011;23174;49.462;11.000;2023-01-23T05:42:16;9.13;;;8.30;;
37288;SDS011;23174;49.462;11.000;2023-01-23T05:44:17;9.18;;;8.25;;
37288;SDS011;23174;49.462;11.000;2023-01-23T05:46:17;9.57;;;8.57;;
37288;SDS011;23174;49.462;11.000;2023-01-23T05:48:18;9.40;;;8.40;;
37288;SDS011;23174;49.462;11.000;2023-01-23T05:50:18;8.63;;;7.80;;
37288;SDS011;23174;49.462;11.000;2023-01-23T05:52:21;8.95;;;8.15;;
37288;SDS011;23174;49.462;11.000;2023-01-23T05:54:22;9.05;;;8.15;;
37288;SDS011;23174;49.462;11.000;2023-01-23T05:56:22;9.15;;;7.95;;
37288;SDS011;23174;49.462;11.000;2023-01-23T05:58:23;8.93;;;8.10;;
37288;SDS011;23174;49.462;11.000;2023-01-23T06:00:25;8.95;;;8.05;;
37288;SDS011;23174;49.462;11.000;2023-01-23T06:02:26;9.10;;;8.20;;
37288;SDS011;23174;49.462;11.000;2023-01-23T06:04:27;9.38;;;8.45;;
37288;SDS011;23174;49.462;11.000;2023-01-23T06:06:27;9.18;;;8.32;;
37288;SDS011;23174;49.462;11.000;2023-01-23T06:08:28;9.95;;;8.32;;
37288;SDS011;23174;49.462;11.000;2023-01-23T06:10:29;8.80;;;8.00;;
37288;SDS011;23174;49.462;11.000;2023-01-23T06:12:29;9.10;;;8.20;;
37288;SDS011;23174;49.462;11.000;2023-01-23T06:14:30;9.00;;;7.85;;
37288;SDS011;23174;49.462;11.000;2023-01-23T06:16:30;9.05;;;8.15;;
37288;SDS011;23174;49.462;11.000;2023-01-23T06:18:31;8.82;;;7.93;;
37288;SDS011;23174;49.462;11.000;2023-01-23T06:20:31;9.10;;;8.20;;
37288;SDS011;23174;49.462;11.000;2023-01-23T06:22:32;8.45;;;7.68;;
37288;SDS011;23174;49.462;11.000;2023-01-23T06:24:33;8.93;;;8.05;;
37288;SDS011;23174;49.462;11.000;2023-01-23T06:26:33;8.73;;;7.88;;
37288;SDS011;23174;49.462;11.000;2023-01-23T06:28:34;8.27;;;7.43;;
37288;SDS011;23174;49.462;11.000;2023-01-23T06:30:35;9.50;;;8.68;;
37288;SDS011;23174;49.462;11.000;2023-01-23T06:32:36;9.60;;;7.78;;
37288;SDS011;23174;49.462;11.000;2023-01-23T06:34:36;8.45;;;7.68;;
37288;SDS011;23174;49.462;11.000;2023-01-23T06:36:37;8.93;;;7.53;;
37288;SDS011;23174;49.462;11.000;2023-01-23T06:38:39;8.00;;;7.20;;
37288;SDS011;23174;49.462;11.000;2023-01-23T06:40:39;9.07;;;8.18;;
37288;SDS011;23174;49.462;11.000;2023-01-23T06:42:40;8.23;;;7.43;;
37288;SDS011;23174;49.462;11.000;2023-01-23T06:44:41;8.98;;;8.05;;
37288;SDS011;23174;49.462;11.000;2023-01-23T06:46:42;7.82;;;7.10;;
37288;SDS011;23174;49.462;11.000;2023-01-23T06:48:42;7.90;;;7.18;;
37288;SDS011;23174;49.462;11.000;2023-01-23T06:50:43;8.70;;;7.90;;
37288;SDS011;23174;49.462;11.000;2023-01-23T06:52:44;8.05;;;7.22;;
37288;SDS011;23174;49.462;11.000;2023-01-23T06:54:44;8.52;;;7.28;;
37288;SDS011;23174;49.462;11.000;2023-01-23T06:56:45;8.27;;;7.57;;
37288;SDS011;23174;49.462;11.000;2023-01-23T06:58:45;8.32;;;7.53;;
37288;SDS011;23174;49.462;11.000;2023-01-23T07:00:46;9.80;;;7.43;;
37288;SDS011;23174;49.462;11.000;2023-01-23T07:02:47;10.25;;;7.88;;
37288;SDS011;23174;49.462;11.000;2023-01-23T07:04:48;7.45;;;6.85;;
37288;SDS011;23174;49.462;11.000;2023-01-23T07:06:48;7.93;;;7.22;;
37288;SDS011;23174;49.462;11.000;2023-01-23T07:08:49;8.40;;;7.50;;
37288;SDS011;23174;49.462;11.000;2023-01-23T07:10:50;8.48;;;7.65;;
37288;SDS011;23174;49.462;11.000;2023-01-23T07:12:50;8.60;;;7.80;;
37288;SDS011;23174;49.462;11.000;2023-01-23T07:14:51;9.07;;;8.23;;
37288;SDS011;23174;49.462;11.000;2023-01-23T07:16:52;8.48;;;7.72;;
37288;SDS011;23174;49.462;11.000;2023-01-23T07:18:55;8.68;;;7.85;;
37288;SDS011;23174;49.462;11.000;2023-01-23T07:20:57;8.43;;;7.53;;
37288;SDS011;23174;49.462;11.000;2023-01-23T07:22:58;8.02;;;7.22;;
37288;SDS011;23174;49.462;11.000;2023-01-23T07:24:59;8.30;;;7.25;;
37288;SDS011;23174;49.462;11.000;2023-01-23T07:26:59;8.48;;;7.68;;
37288;SDS011;23174;49.462;11.000;2023-01-23T07:29:00;8.68;;;7.88;;
37288;SDS011;23174;49.462;11.000;2023-01-23T07:31:00;9.25;;;8.10;;
37288;SDS011;23174;49.462;11.000;2023-01-23T07:33:02;9.10;;;8.20;;
37288;SDS011;23174;49.462;11.000;2023-01-23T07:35:03;11.35;;;8.48;;
37288;SDS011;23174;49.462;11.000;2023-01-23T07:37:03;15.45;;;9.80;;
37288;SDS011;23174;49.462;11.000;2023-01-23T07:39:04;15.05;;;8.20;;
37288;SDS011;23174;49.462;11.000;2023-01-23T07:41:05;12.18;;;8.13;;
37288;SDS011;23174;49.462;11.000;2023-01-23T07:43:06;13.07;;;8.32;;
37288;SDS011;23174;49.462;11.000;2023-01-23T07:45:07;14.75;;;8.13;;
37288;SDS011;23174;49.462;11.000;2023-01-23T07:47:09;14.48;;;7.90;;
37288;SDS011;23174;49.462;11.000;2023-01-23T07:49:09;9.13;;;8.13;;
37288;SDS011;23174;49.462;11.000;2023-01-23T07:51:10;11.55;;;7.80;;
37288;SDS011;23174;49.462;11.000;2023-01-23T07:53:11;8.45;;;7.68;;
37288;SDS011;23174;49.462;11.000;2023-01-23T07:55:12;9.10;;;8.18;;
37288;SDS011;23174;49.462;11.000;2023-01-23T07:57:13;8.82;;;8.02;;
37288;SDS011;23174;49.462;11.000;2023-01-23T07:59:14;11.65;;;8.77;;
37288;SDS011;23174;49.462;11.000;2023-01-23T08:01:14;14.00;;;8.25;;
37288;SDS011;23174;49.462;11.000;2023-01-23T08:03:15;12.95;;;9.00;;
37288;SDS011;23174;49.462;11.000;2023-01-23T08:05:15;14.30;;;8.63;;
37288;SDS011;23174;49.462;11.000;2023-01-23T08:07:16;11.55;;;8.65;;
37288;SDS011;23174;49.462;11.000;2023-01-23T08:09:17;21.23;;;9.07;;
37288;SDS011;23174;49.462;11.000;2023-01-23T08:11:17;20.13;;;9.57;;
37288;SDS011;23174;49.462;11.000;2023-01-23T08:13:18;9.38;;;8.48;;
37288;SDS011;23174;49.462;11.000;2023-01-23T08:15:19;10.30;;;8.68;;
37288;SDS011;23174;49.462;11.000;2023-01-23T08:17:19;17.95;;;9.00;;
37288;SDS011;23174;49.462;11.000;2023-01-23T08:19:20;11.95;;;8.13;;
37288;SDS011;23174;49.462;11.000;2023-01-23T08:21:20;11.77;;;8.60;;
37288;SDS011;23174;49.462;11.000;2023-01-23T08:23:31;10.00;;;9.00;;
37288;SDS011;23174;49.462;11.000;2023-01-23T08:25:33;11.65;;;9.35;;
37288;SDS011;23174;49.462;11.000;2023-01-23T08:27:33;10.82;;;9.38;;
37288;SDS011;23174;49.462;11.000;2023-01-23T08:29:34;9.30;;;8.45;;
37288;SDS011;23174;49.462;11.000;2023-01-23T08:31:35;11.50;;;9.68;;
37288;SDS011;23174;49.462;11.000;2023-01-23T08:33:36;10.70;;;8.90;;
37288;SDS011;23174;49.462;11.000;2023-01-23T08:35:37;11.13;;;9.45;;
37288;SDS011;23174;49.462;11.000;2023-01-23T08:37:38;9.75;;;8.77;;
37288;SDS011;23174;49.462;11.000;2023-01-23T08:39:40;9.57;;;8.50;;
37288;SDS011;23174;49.462;11.000;2023-01-23T08:41:41;9.82;;;8.88;;
37288;SDS011;23174;49.462;11.000;2023-01-23T08:43:41;9.85;;;8.95;;
37288;SDS011;23174;49.462;11.000;2023-01-23T08:45:50;9.23;;;8.32;;
37288;SDS011;23174;49.462;11.000;2023-01-23T08:47:51;11.05;;;8.90;;
37288;SDS011;23174;49.462;11.000;2023-01-23T08:49:52;9.48;;;8.52;;
37288;SDS011;23174;49.462;11.000;2023-01-23T08:51:52;9.05;;;8.18;;
37288;SDS011;23174;49.462;11.000;2023-01-23T08:53:53;11.07;;;9.20;;
37288;SDS011;23174;49.462;11.000;2023-01-23T08:55:57;9.13;;;8.35;;
37288;SDS011;23174;49.462;11.000;2023-01-23T08:58:09;9.50;;;8.60;;
37288;SDS011;23174;49.462;11.000;2023-01-23T09:00:13;9.55;;;8.63;;
37288;SDS011;23174;49.462;11.000;2023-01-23T09:02:14;9.18;;;8.38;;
37288;SDS011;23174;49.462;11.000;2023-01-23T09:04:15;8.57;;;7.88;;
37288;SDS011;23174;49.462;11.000;2023-01-23T09:06:17;9.05;;;7.82;;
37288;SDS011;23174;49.462;11.000;2023-01-23T09:08:21;8.95;;;8.05;;
37288;SDS011;23174;49.462;11.000;2023-01-23T09:10:22;14.90;;;8.68;;
37288;SDS011;23174;49.462;11.000;2023-01-23T09:12:23;8.52;;;7.72;;
37288;SDS011;23174;49.462;11.000;2023-01-23T09:14:24;8.75;;;7.75;;
37288;SDS011;23174;49.462;11.000;2023-01-23T09:16:24;9.27;;;7.90;;
37288;SDS011;23174;49.462;11.000;2023-01-23T09:18:25;8.93;;;8.02;;
37288;SDS011;23174;49.462;11.000;2023-01-23T09:20:26;8.25;;;7.55;;
37288;SDS011;23174;49.462;11.000;2023-01-23T09:22:28;8.13;;;7.30;;
37288;SDS011;23174;49.462;11.000;2023-01-23T09:24:28;8.30;;;7.60;;
37288;SDS011;23174;49.462;11.000;2023-01-23T09:26:29;8.68;;;7.78;;
37288;SDS011;23174;49.462;11.000;2023-01-23T09:28:30;8.52;;;7.70;;
37288;SDS011;23174;49.462;11.000;2023-01-23T09:30:31;8.55;;;7.75;;
37288;SDS011;23174;49.462;11.000;2023-01-23T09:32:31;8.45;;;7.65;;
37288;SDS011;23174;49.462;11.000;2023-01-23T09:34:33;8.68;;;7.88;;
37288;SDS011;23174;49.462;11.000;2023-01-23T09:36:34;8.07;;;7.35;;
37288;SDS011;23174;49.462;11.000;2023-01-23T09:38:35;8.25;;;7.45;;
37288;SDS011;23174;49.462;11.000;2023-01-23T09:40:36;7.30;;;6.60;;
37288;SDS011;23174;49.462;11.000;2023-01-23T09:42:44;8.07;;;7.27;;
37288;SDS011;23174;49.462;11.000;2023-01-23T09:44:50;9.77;;;7.53;;
37288;SDS011;23174;49.462;11.000;2023-01-23T09:47:04;19.42;;;7.82;;
37288;SDS011;23174;49.462;11.000;2023-01-23T09:49:26;9.55;;;7.55;;
37288;SDS011;23174;49.462;11.000;2023-01-23T09:53:37;11.93;;;7.25;;
37288;SDS011;23174;49.462;11.000;2023-01-23T09:55:41;9.38;;;6.22;;
37288;SDS011;23174;49.462;11.000;2023-01-23T09:57:56;7.20;;;6.63;;
37288;SDS011;23174;49.462;11.000;2023-01-23T10:00:03;7.55;;;6.90;;
37288;SDS011;23174;49.462;11.000;2023-01-23T10:02:16;6.95;;;6.35;;
37288;SDS011;23174;49.462;11.000;2023-01-23T10:04:19;7.60;;;6.85;;
37288;SDS011;23174;49.462;11.000;2023-01-23T10:06:23;7.35;;;6.70;;
37288;SDS011;23174;49.462;11.000;2023-01-23T10:08:36;7.03;;;6.30;;
37288;SDS011;23174;49.462;11.000;2023-01-23T10:10:57;7.43;;;6.82;;
37288;SDS011;23174;49.462;11.000;2023-01-23T10:13:16;7.03;;;6.45;;
37288;SDS011;23174;49.462;11.000;2023-01-23T10:15:51;7.15;;;6.38;;
37288;SDS011;23174;49.462;11.000;2023-01-23T10:18:10;7.72;;;6.78;;
37288;SDS011;23174;49.462;11.000;2023-01-23T10:23:35;7.68;;;6.97;;
37288;SDS011;23174;49.462;11.000;2023-01-23T10:25:17;7.38;;;6.68;;
37288;SDS011;23174;49.462;11.000;2023-01-23T10:27:35;8.35;;;6.85;;
37288;SDS011;23174;49.462;11.000;2023-01-23T10:29:43;8.63;;;6.55;;
37288;SDS011;23174;49.462;11.000;2023-01-23T10:31:50;6.97;;;6.28;;
37288;SDS011;23174;49.462;11.000;2023-01-23T10:34:13;7.35;;;6.65;;
37288;SDS011;23174;49.462;11.000;2023-01-23T10:36:28;7.28;;;6.57;;
37288;SDS011;23174;49.462;11.000;2023-01-23T10:38:42;6.82;;;6.22;;
37288;SDS011;23174;49.462;11.000;2023-01-23T10:40:48;12.43;;;7.03;;
37288;SDS011;23174;49.462;11.000;2023-01-23T10:43:15;11.82;;;6.70;;
37288;SDS011;23174;49.462;11.000;2023-01-23T10:45:18;8.52;;;5.20;;
37288;SDS011;23174;49.462;11.000;2023-01-23T10:47:26;14.48;;;6.40;;
37288;SDS011;23174;49.462;11.000;2023-01-23T10:49:34;9.52;;;6.47;;
37288;SDS011;23174;49.462;11.000;2023-01-23T10:51:46;20.63;;;6.35;;
37288;SDS011;23174;49.462;11.000;2023-01-23T10:53:58;24.73;;;7.22;;
37288;SDS011;23174;49.462;11.000;2023-01-23T10:56:09;7.00;;;6.30;;
37288;SDS011;23174;49.462;11.000;2023-01-23T11:00:44;6.00;;;5.45;;
37288;SDS011;23174;49.462;11.000;2023-01-23T11:02:45;6.43;;;5.93;;
37288;SDS011;23174;49.462;11.000;2023-01-23T11:04:47;6.57;;;5.97;;
37288;SDS011;23174;49.462;11.000;2023-01-23T11:06:59;7.00;;;6.30;;
37288;SDS011;23174;49.462;11.000;2023-01-23T11:09:07;6.57;;;5.97;;
37288;SDS011;23174;49.462;11.000;2023-01-23T11:11:20;6.20;;;5.60;;
37288;SDS011;23174;49.462;11.000;2023-01-23T11:13:26;6.13;;;5.65;;
37288;SDS011;23174;49.462;11.000;2023-01-23T11:15:32;7.78;;;5.88;;
37288;SDS011;23174;49.462;11.000;2023-01-23T11:17:37;6.97;;;6.28;;
37288;SDS011;23174;49.462;11.000;2023-01-23T11:19:40;6.15;;;5.65;;
37288;SDS011;23174;49.462;11.000;2023-01-23T11:21:50;6.38;;;5.88;;
37288;SDS011;23174;49.462;11.000;2023-01-23T11:26:29;7.95;;;7.25;;
37288;SDS011;23174;49.462;11.000;2023-01-23T11:28:31;8.13;;;7.35;;
37288;SDS011;23174;49.462;11.000;2023-01-23T11:30:42;8.63;;;7.75;;
37288;SDS011;23174;49.462;11.000;2023-01-23T11:32:49;8.32;;;7.53;;
37288;SDS011;23174;49.462;11.000;2023-01-23T11:35:21;8.32;;;7.60;;
37288;SDS011;23174;49.462;11.000;2023-01-23T11:37:33;8.18;;;7.47;;
37288;SDS011;23174;49.462;11.000;2023-01-23T11:41:43;8.23;;;7.43;;
37288;SDS011;23174;49.462;11.000;2023-01-23T11:43:44;8.73;;;7.72;;
37288;SDS011;23174;49.462;11.000;2023-01-23T11:48:17;8.15;;;7.43;;
37288;SDS011;23174;49.462;11.000;2023-01-23T11:50:29;9.00;;;7.90;;
37288;SDS011;23174;49.462;11.000;2023-01-23T11:52:42;7.57;;;6.97;;
37288;SDS011;23174;49.462;11.000;2023-01-23T12:04:32;8.32;;;7.47;;
37288;SDS011;23174;49.462;11.000;2023-01-23T12:09:15;7.53;;;6.45;;
37288;SDS011;23174;49.462;11.000;2023-01-23T12:11:17;6.35;;;5.82;;
37288;SDS011;23174;49.462;11.000;2023-01-23T12:13:28;7.28;;;6.35;;
37288;SDS011;23174;49.462;11.000;2023-01-23T12:18:34;9.73;;;6.93;;
37288;SDS011;23174;49.462;11.000;2023-01-23T12:23:02;7.90;;;7.10;;
37288;SDS011;23174;49.462;11.000;2023-01-23T12:25:40;7.90;;;7.15;;
37288;SDS011;23174;49.462;11.000;2023-01-23T12:27:45;8.00;;;7.22;;
37288;SDS011;23174;49.462;11.000;2023-01-23T12:39:02;9.27;;;6.60;;
37288;SDS011;23174;49.462;11.000;2023-01-23T12:41:35;10.40;;;7.18;;
37288;SDS011;23174;49.462;11.000;2023-01-23T12:46:07;8.90;;;6.65;;
37288;SDS011;23174;49.462;11.000;2023-01-23T12:48:23;11.20;;;8.18;;
37288;SDS011;23174;49.462;11.000;2023-01-23T12:50:34;8.90;;;7.60;;
37288;SDS011;23174;49.462;11.000;2023-01-23T12:52:52;7.78;;;7.07;;
37288;SDS011;23174;49.462;11.000;2023-01-23T12:55:10;8.10;;;7.30;;
37288;SDS011;23174;49.462;11.000;2023-01-23T12:57:51;8.63;;;7.65;;
37288;SDS011;23174;49.462;11.000;2023-01-23T13:00:00;8.15;;;7.38;;
37288;SDS011;23174;49.462;11.000;2023-01-23T13:02:27;8.23;;;7.53;;
37288;SDS011;23174;49.462;11.000;2023-01-23T13:04:58;9.48;;;8.05;;